NORTHEAST SUFFOLK  -  Winter Weather Advisory Winter Weather Advisory        NORTHERN NASSAU  -  Winter Weather Advisory Winter Weather Advisory        NORTHWEST SUFFOLK  -  Winter Weather Advisory Winter Weather Advisory        SOUTHEAST SUFFOLK  -  Winter Weather Advisory Winter Weather Advisory        SOUTHERN NASSAU  -  Winter Weather Advisory Winter Weather Advisory        SOUTHWEST SUFFOLK  -  Winter Weather Advisory Winter Weather Advisory      

Active alerts

Northern Nassau
  Details for Northern Nassau Winter Weather Advisory
Southern Nassau
  Details for Southern Nassau Winter Weather Advisory
Northwest Suffolk
  Details for Northwest Suffolk Winter Weather Advisory
Southwest Suffolk
  Details for Southwest Suffolk Winter Weather Advisory
Northeast Suffolk
  Details for Northeast Suffolk Winter Weather Advisory
Southeast Suffolk
  Details for Southeast Suffolk Winter Weather Advisory


WXM80 ListenWXM80 Stop

You find our weather info also at:

UK Metoffice

WeatherCloud

Weather Underground

Northeastern Weather Network

AWEKAS

Citizen Weather Observer Program (CWOP)

HAMweather, WeatherForYou, PWS Weather


Weather Underground History page Text

Daily Summary for July 19, 2016 Units:  English    Metric   Both
« Previous Day
Next Day »
Daily Weekly Monthly Yearly Custom
  High: Low: Average:
Temperature: 88.2 °F 69.4 °F 78.2 °F
Dew Point: 72.6 °F 58.8 °F 64.8 °F
Humidity: 94 % 40 % 66 %
Wind Speed: 7.2 mph 0.0 mph 2 mph
Wind Gust: 13.0 mph - -
Wind:- - WSW
Pressure: 30.14 in 29.94 in -
Precipitation: 0.01 in    
Historical Graphs
 
 
Tabular Data for July 19, 2016
Time Temperature Dew Point Pressure Wind Wind Speed Wind Gust Humidity Rainfall Rate (Hourly)
00:03 74.2 °F 72.4 °F 29.96 in SW 0.2 mph 2.3 mph 94 % 0.00 in
00:08 74.2 °F 72.4 °F 29.95 in SSW 0.9 mph 3.5 mph 94 % 0.00 in
00:14 74.1 °F 72.3 °F 29.95 in SW 0.2 mph 3.5 mph 94 % 0.00 in
00:19 74.1 °F 72.3 °F 29.95 in WSW 0.9 mph 1.0 mph 94 % 0.00 in
00:24 74.0 °F 72.2 °F 29.95 in SW 1.5 mph 3.5 mph 94 % 0.00 in
00:29 74.0 °F 72.2 °F 29.95 in SW 2.0 mph 5.8 mph 94 % 0.00 in
00:34 74.0 °F 72.2 °F 29.95 in SW 1.1 mph 3.0 mph 94 % 0.00 in
00:39 74.0 °F 72.2 °F 29.95 in SSW 0.2 mph 1.2 mph 94 % 0.00 in
00:44 74.0 °F 72.2 °F 29.95 in WSW 2.8 mph 3.5 mph 94 % 0.00 in
00:49 74.0 °F 72.2 °F 29.95 in SSW 3.1 mph 3.5 mph 94 % 0.00 in
00:54 74.0 °F 72.2 °F 29.95 in SW 2.0 mph 6.9 mph 94 % 0.00 in
00:59 74.0 °F 72.2 °F 29.95 in WSW 1.4 mph 8.1 mph 94 % 0.00 in
01:05 74.0 °F 72.2 °F 29.95 in WSW 1.6 mph 3.5 mph 94 % 0.00 in
01:10 74.1 °F 72.3 °F 29.94 in SW 2.8 mph 4.6 mph 94 % 0.00 in
01:15 74.1 °F 72.3 °F 29.94 in WSW 1.3 mph 4.6 mph 94 % 0.00 in
01:20 74.1 °F 72.3 °F 29.94 in West 2.6 mph 5.8 mph 94 % 0.00 in
01:25 74.2 °F 72.4 °F 29.94 in WSW 3.0 mph 4.6 mph 94 % 0.00 in
01:30 74.2 °F 72.4 °F 29.94 in West 3.5 mph 5.0 mph 94 % 0.00 in
01:35 74.2 °F 72.4 °F 29.94 in SSW 1.3 mph 5.0 mph 94 % 0.00 in
01:40 74.2 °F 72.4 °F 29.94 in WSW 1.7 mph 3.5 mph 94 % 0.00 in
01:45 74.3 °F 72.5 °F 29.94 in SW 3.3 mph 4.6 mph 94 % 0.00 in
01:50 74.3 °F 72.5 °F 29.95 in SW 2.1 mph 5.8 mph 94 % 0.00 in
01:56 74.3 °F 72.5 °F 29.95 in SW 1.0 mph 4.0 mph 94 % 0.00 in
02:01 74.4 °F 72.6 °F 29.95 in SW 1.8 mph 3.5 mph 94 % 0.00 in
02:06 74.4 °F 72.6 °F 29.95 in WNW 1.7 mph 3.5 mph 94 % 0.00 in
02:11 74.4 °F 72.2 °F 29.95 in West 3.2 mph 8.0 mph 93 % 0.00 in
02:16 74.4 °F 72.2 °F 29.95 in WSW 1.6 mph 4.0 mph 93 % 0.00 in
02:21 74.4 °F 72.2 °F 29.95 in SSW 1.8 mph 3.5 mph 93 % 0.00 in
02:26 74.4 °F 72.2 °F 29.96 in SSW 0.6 mph 2.3 mph 93 % 0.00 in
02:31 74.4 °F 72.2 °F 29.96 in SW 0.3 mph 2.3 mph 93 % 0.00 in
02:36 74.5 °F 72.3 °F 29.96 in WSW 0.9 mph 3.5 mph 93 % 0.00 in
02:41 74.5 °F 72.3 °F 29.96 in WSW 1.3 mph 4.0 mph 93 % 0.00 in
02:47 74.5 °F 72.3 °F 29.96 in SSW 0.5 mph 3.5 mph 93 % 0.00 in
02:52 74.4 °F 71.9 °F 29.96 in SSW 2.9 mph 8.1 mph 92 % 0.00 in
02:57 74.4 °F 71.9 °F 29.97 in WNW 3.5 mph 5.8 mph 92 % 0.00 in
03:02 74.5 °F 72.0 °F 29.97 in WSW 3.0 mph 5.8 mph 92 % 0.00 in
03:07 74.4 °F 71.9 °F 29.97 in WSW 0.7 mph 3.5 mph 92 % 0.00 in
03:12 74.5 °F 71.7 °F 29.97 in West 3.3 mph 5.8 mph 91 % 0.00 in
03:17 74.4 °F 71.6 °F 29.97 in WSW 4.0 mph 6.9 mph 91 % 0.00 in
03:22 74.4 °F 71.6 °F 29.97 in West 1.8 mph 8.1 mph 91 % 0.00 in
03:27 74.4 °F 71.3 °F 29.97 in WSW 0.4 mph 3.5 mph 90 % 0.00 in
03:32 74.4 °F 71.3 °F 29.97 in WSW 2.8 mph 5.8 mph 90 % 0.00 in
03:38 74.4 °F 71.3 °F 29.97 in WNW 2.6 mph 3.5 mph 90 % 0.00 in
03:43 74.4 °F 71.3 °F 29.97 in WNW 1.4 mph 3.5 mph 90 % 0.00 in
03:48 74.4 °F 70.9 °F 29.97 in WNW 2.5 mph 3.5 mph 89 % 0.00 in
03:53 74.4 °F 70.9 °F 29.97 in WNW 0.9 mph 5.0 mph 89 % 0.00 in
03:58 74.3 °F 70.8 °F 29.97 in WNW 0.3 mph 2.3 mph 89 % 0.00 in
04:03 74.3 °F 70.8 °F 29.97 in West 0.4 mph 3.5 mph 89 % 0.00 in
04:08 74.2 °F 70.7 °F 29.98 in SW 0.9 mph 2.0 mph 89 % 0.00 in
04:13 74.2 °F 70.7 °F 29.98 in SW 0.2 mph 1.0 mph 89 % 0.00 in
04:18 74.1 °F 70.6 °F 29.98 in Calm   1.2 mph 89 % 0.00 in
04:29 73.9 °F 70.5 °F 29.98 in NW 0.7 mph 3.5 mph 89 % 0.00 in
04:34 73.8 °F 70.0 °F 29.98 in NW 1.1 mph 3.5 mph 88 % 0.00 in
04:39 73.8 °F 70.0 °F 29.99 in NW 0.1 mph 2.3 mph 88 % 0.00 in
04:44 73.6 °F 69.8 °F 29.98 in Calm   1.2 mph 88 % 0.00 in
04:49 73.5 °F 69.4 °F 29.99 in WNW 0.1 mph 1.2 mph 87 % 0.00 in
04:54 73.4 °F 69.3 °F 29.99 in Calm   1.2 mph 87 % 0.00 in
04:59 73.3 °F 69.2 °F 29.99 in Calm     87 % 0.00 in
05:04 73.2 °F 69.1 °F 29.99 in West 0.1 mph 1.0 mph 87 % 0.00 in
05:09 73.1 °F 69.0 °F 30.00 in Calm   2.3 mph 87 % 0.00 in
05:14 73.0 °F 68.6 °F 30.00 in West 1.8 mph 3.5 mph 86 % 0.00 in
05:19 72.8 °F 68.0 °F 30.00 in SSW 3.8 mph 9.2 mph 85 % 0.00 in
05:25 72.8 °F 68.0 °F 30.00 in NW 4.1 mph 6.9 mph 85 % 0.00 in
05:30 72.8 °F 68.0 °F 30.00 in NW 5.7 mph 9.2 mph 85 % 0.00 in
05:35 72.8 °F 67.7 °F 30.00 in North 3.8 mph 5.8 mph 84 % 0.00 in
05:40 72.8 °F 67.7 °F 30.00 in West 1.9 mph 5.8 mph 84 % 0.00 in
05:45 72.8 °F 67.7 °F 30.00 in SW 3.7 mph 5.8 mph 84 % 0.00 in
05:50 72.8 °F 67.3 °F 30.00 in NW 1.8 mph 6.0 mph 83 % 0.00 in
05:55 72.9 °F 67.4 °F 30.01 in WNW 4.4 mph 6.9 mph 83 % 0.00 in
06:00 72.8 °F 67.3 °F 30.01 in WNW 3.4 mph 9.0 mph 83 % 0.00 in
06:05 72.9 °F 67.1 °F 30.01 in WNW 2.2 mph 4.6 mph 82 % 0.00 in
06:10 72.9 °F 67.1 °F 30.01 in West 3.1 mph 6.9 mph 82 % 0.00 in
06:15 72.8 °F 66.6 °F 30.01 in WNW 0.3 mph 3.5 mph 81 % 0.00 in
06:20 72.8 °F 66.6 °F 30.01 in WNW 2.1 mph 3.5 mph 81 % 0.00 in
06:26 72.7 °F 66.2 °F 30.02 in NW 1.0 mph 6.0 mph 80 % 0.00 in
06:31 72.6 °F 65.7 °F 30.02 in WNW 1.0 mph 4.0 mph 79 % 0.00 in
06:36 72.6 °F 66.1 °F 30.02 in West 3.0 mph 5.0 mph 80 % 0.00 in
06:41 72.6 °F 66.4 °F 30.02 in West 2.0 mph 6.0 mph 81 % 0.00 in
06:46 72.7 °F 66.2 °F 30.02 in WNW 2.0 mph 4.0 mph 80 % 0.00 in
06:51 72.8 °F 65.9 °F 30.02 in Calm   3.0 mph 79 % 0.00 in
06:56 72.9 °F 65.6 °F 30.02 in WNW 3.0 mph 8.0 mph 78 % 0.00 in
07:01 73.0 °F 65.7 °F 30.02 in West 0.5 mph 2.3 mph 78 % 0.01 in
07:06 73.2 °F 65.9 °F 30.02 in Calm   4.0 mph 78 % 0.00 in
07:11 73.3 °F 65.3 °F 30.02 in West 2.0 mph 8.0 mph 76 % 0.00 in
07:16 73.5 °F 65.5 °F 30.03 in WNW 1.0 mph 5.0 mph 76 % 0.00 in
07:21 73.7 °F 65.7 °F 30.03 in WNW 1.0 mph 5.0 mph 76 % 0.00 in
07:26 73.9 °F 65.5 °F 30.03 in West 1.0 mph 4.0 mph 75 % 0.00 in
07:31 74.1 °F 64.9 °F 30.03 in WNW 5.0 mph 7.0 mph 73 % 0.00 in
07:36 74.3 °F 65.5 °F 30.03 in WNW 2.0 mph 5.0 mph 74 % 0.00 in
07:41 74.4 °F 64.8 °F 30.03 in WNW 3.0 mph 7.0 mph 72 % 0.00 in
07:46 74.5 °F 64.9 °F 30.03 in WNW 2.0 mph 6.0 mph 72 % 0.00 in
07:51 74.6 °F 65.0 °F 30.03 in WNW 1.0 mph 7.0 mph 72 % 0.00 in
07:56 74.6 °F 64.2 °F 30.04 in WNW 3.0 mph 6.0 mph 70 % 0.00 in
08:01 74.5 °F 64.1 °F 30.04 in WNW 3.1 mph 4.6 mph 70 % 0.00 in
08:06 74.5 °F 63.7 °F 30.04 in West 3.0 mph 7.0 mph 69 % 0.00 in
08:11 74.5 °F 63.6 °F 30.04 in WNW 1.0 mph 6.0 mph 69 % 0.00 in
08:16 74.5 °F 63.6 °F 30.05 in NW 2.0 mph 12.0 mph 69 % 0.00 in
08:21 74.5 °F 64.1 °F 30.05 in NW 2.0 mph 6.0 mph 70 % 0.00 in
08:26 74.6 °F 65.4 °F 30.05 in NNW 2.0 mph 6.0 mph 73 % 0.00 in
08:31 74.6 °F 65.0 °F 30.05 in WNW 1.4 mph 3.0 mph 72 % 0.00 in
08:36 74.6 °F 63.8 °F 30.06 in NW 3.0 mph 7.0 mph 69 % 0.00 in
08:41 74.6 °F 63.8 °F 30.06 in NW 1.0 mph 6.0 mph 69 % 0.00 in
08:46 74.6 °F 63.8 °F 30.06 in NW 5.0 mph 9.0 mph 69 % 0.00 in
08:51 74.6 °F 63.3 °F 30.06 in NW 3.0 mph 8.0 mph 68 % 0.00 in
08:56 74.6 °F 62.9 °F 30.06 in WNW 2.0 mph 7.0 mph 67 % 0.00 in
09:01 74.5 °F 62.8 °F 30.06 in NW 2.3 mph 4.6 mph 67 % 0.00 in
09:06 74.5 °F 62.4 °F 30.06 in NNW 2.1 mph 6.9 mph 66 % 0.00 in
09:11 74.6 °F 62.5 °F 30.06 in NNE 3.4 mph 5.8 mph 66 % 0.00 in
09:16 74.7 °F 62.6 °F 30.06 in WNW 4.4 mph 9.2 mph 66 % 0.00 in
09:21 74.8 °F 62.2 °F 30.06 in NE 2.2 mph 3.5 mph 65 % 0.00 in
09:26 74.8 °F 62.7 °F 30.06 in NW 2.5 mph 8.0 mph 66 % 0.00 in
09:31 74.9 °F 62.8 °F 30.06 in WNW 5.2 mph 10.4 mph 66 % 0.00 in
09:36 75.0 °F 63.3 °F 30.06 in WNW 3.3 mph 9.0 mph 67 % 0.00 in
09:41 75.1 °F 62.5 °F 30.06 in West 4.3 mph 9.2 mph 65 % 0.00 in
09:46 75.5 °F 62.5 °F 30.06 in NW 6.2 mph 11.5 mph 64 % 0.00 in
09:51 75.9 °F 62.4 °F 30.05 in NW 2.7 mph 10.4 mph 63 % 0.00 in
09:57 76.4 °F 63.8 °F 30.06 in WNW 5.1 mph 7.0 mph 65 % 0.00 in
10:02 77.0 °F 63.0 °F 30.06 in NNW 5.0 mph 8.0 mph 62 % 0.00 in
10:07 77.7 °F 62.7 °F 30.06 in NNW 5.1 mph 13.0 mph 60 % 0.00 in
10:12 78.4 °F 62.9 °F 30.06 in West 0.6 mph 8.1 mph 59 % 0.00 in
10:17 79.2 °F 63.1 °F 30.06 in West 3.3 mph 10.4 mph 58 % 0.00 in
10:22 79.9 °F 62.3 °F 30.06 in WNW 7.2 mph 11.5 mph 55 % 0.00 in
10:27 80.5 °F 62.3 °F 30.06 in WNW 2.7 mph 5.8 mph 54 % 0.00 in
10:32 81.2 °F 64.5 °F 30.06 in WNW 3.0 mph 8.0 mph 57 % 0.00 in
10:37 81.7 °F 62.9 °F 30.06 in West 3.3 mph 11.5 mph 53 % 0.00 in
10:42 82.1 °F 61.6 °F 30.06 in WSW 6.3 mph 10.4 mph 50 % 0.00 in
10:48 82.5 °F 64.7 °F 30.06 in SW 3.8 mph 6.0 mph 55 % 0.00 in
10:53 82.8 °F 61.7 °F 30.06 in WNW 2.5 mph 4.6 mph 49 % 0.00 in
10:58 83.2 °F 61.5 °F 30.06 in NW 3.4 mph 10.4 mph 48 % 0.00 in
11:03 83.6 °F 62.4 °F 30.06 in NNW 4.3 mph 9.2 mph 49 % 0.00 in
11:08 84.0 °F 65.0 °F 30.06 in NW 1.0 mph 3.5 mph 53 % 0.00 in
11:13 84.5 °F 66.0 °F 30.06 in NNE 2.4 mph 3.5 mph 54 % 0.00 in
11:18 84.9 °F 63.6 °F 30.06 in NW 3.2 mph 5.8 mph 49 % 0.00 in
11:23 85.2 °F 65.6 °F 30.06 in NNE 2.6 mph 5.0 mph 52 % 0.00 in
11:28 85.4 °F 64.6 °F 30.06 in NE 1.6 mph 3.5 mph 50 % 0.00 in
11:33 85.8 °F 66.7 °F 30.06 in North 1.2 mph 3.5 mph 53 % 0.00 in
11:38 86.2 °F 63.6 °F 30.06 in NW 5.4 mph 8.1 mph 47 % 0.00 in
11:43 86.6 °F 64.6 °F 30.06 in WNW 2.6 mph 5.8 mph 48 % 0.00 in
11:49 86.8 °F 64.8 °F 30.06 in WNW 3.2 mph 8.1 mph 48 % 0.00 in
11:54 87.0 °F 65.5 °F 30.06 in NNW 1.7 mph 3.5 mph 49 % 0.00 in
11:59 87.2 °F 61.3 °F 30.06 in WSW 3.6 mph 5.8 mph 42 % 0.00 in
12:04 87.2 °F 64.5 °F 30.06 in WNW 3.6 mph 6.0 mph 47 % 0.00 in
12:09 87.5 °F 65.4 °F 30.06 in NW 3.8 mph 7.0 mph 48 % 0.00 in
12:14 87.7 °F 64.4 °F 30.06 in NNW 4.4 mph 6.0 mph 46 % 0.00 in
12:19 87.7 °F 64.4 °F 30.06 in WNW 2.5 mph 4.0 mph 46 % 0.00 in
12:24 87.5 °F 62.2 °F 30.06 in North 4.1 mph 7.0 mph 43 % 0.00 in
12:29 87.5 °F 61.6 °F 30.06 in WSW 5.2 mph 10.4 mph 42 % 0.00 in
12:34 87.6 °F 63.0 °F 30.06 in NW 4.7 mph 7.0 mph 44 % 0.00 in
12:40 87.5 °F 62.2 °F 30.06 in West 4.3 mph 9.0 mph 43 % 0.00 in
12:45 87.6 °F 63.6 °F 30.06 in North 2.3 mph 8.1 mph 45 % 0.00 in
12:50 87.8 °F 67.4 °F 30.06 in NW 2.2 mph 3.5 mph 51 % 0.00 in
12:55 88.0 °F 62.7 °F 30.05 in WSW 2.1 mph 5.8 mph 43 % 0.00 in
13:00 87.7 °F 64.4 °F 30.05 in NNE 5.2 mph 8.1 mph 46 % 0.00 in
13:05 87.6 °F 63.0 °F 30.05 in North 2.9 mph 9.2 mph 44 % 0.00 in
13:10 87.7 °F 63.7 °F 30.06 in NW 5.1 mph 10.0 mph 45 % 0.00 in
13:15 87.3 °F 64.0 °F 30.05 in NNW 1.4 mph 4.6 mph 46 % 0.00 in
13:20 87.4 °F 64.1 °F 30.05 in NW 2.5 mph 5.0 mph 46 % 0.00 in
13:30 87.7 °F 65.6 °F 30.05 in NNW 3.4 mph 4.0 mph 48 % 0.00 in
13:36 87.9 °F 65.2 °F 30.05 in WNW 3.1 mph 11.5 mph 47 % 0.00 in
13:41 88.1 °F 65.9 °F 30.05 in NW 1.0 mph 7.0 mph 48 % 0.00 in
13:46 88.0 °F 61.3 °F 30.05 in WNW 6.0 mph 12.0 mph 41 % 0.00 in
13:51 88.0 °F 65.2 °F 30.04 in WNW 2.0 mph 8.0 mph 47 % 0.00 in
13:56 88.0 °F 64.0 °F 30.05 in NW 2.0 mph 9.0 mph 45 % 0.00 in
14:01 88.2 °F 63.5 °F 30.05 in NW 1.8 mph 9.2 mph 44 % 0.00 in
14:06 88.2 °F 65.4 °F 30.04 in NNW 2.0 mph 9.0 mph 47 % 0.00 in
14:11 88.2 °F 65.4 °F 30.04 in NNW 2.6 mph 3.5 mph 47 % 0.00 in
14:16 88.1 °F 63.4 °F 30.04 in NW 4.3 mph 10.4 mph 44 % 0.00 in
14:21 88.1 °F 64.7 °F 30.04 in NW 4.4 mph 6.9 mph 46 % 0.00 in
14:26 87.9 °F 63.9 °F 30.04 in WNW 3.3 mph 6.9 mph 45 % 0.00 in
14:31 87.7 °F 65.6 °F 30.05 in NNW 3.1 mph 6.9 mph 48 % 0.00 in
14:36 87.7 °F 65.0 °F 30.04 in SW 1.0 mph 3.5 mph 47 % 0.00 in
14:41 87.5 °F 63.5 °F 30.04 in North 2.2 mph 9.2 mph 45 % 0.00 in
14:46 87.5 °F 65.4 °F 30.04 in West 1.5 mph 5.0 mph 48 % 0.00 in
14:51 87.4 °F 62.8 °F 30.04 in WNW 4.6 mph 8.1 mph 44 % 0.00 in
14:57 87.5 °F 61.6 °F 30.04 in West 5.1 mph 8.1 mph 42 % 0.00 in
15:02 87.4 °F 61.5 °F 30.04 in WNW 6.9 mph 7.0 mph 42 % 0.00 in
15:07 87.2 °F 62.6 °F 30.04 in NNW 3.8 mph 6.9 mph 44 % 0.00 in
15:12 87.2 °F 63.3 °F 30.04 in NNW 4.4 mph 10.0 mph 45 % 0.00 in
15:17 87.3 °F 62.1 °F 30.04 in NW 5.1 mph 11.5 mph 43 % 0.00 in
15:22 87.4 °F 62.2 °F 30.04 in WSW 6.1 mph 11.5 mph 43 % 0.00 in
15:27 87.4 °F 64.7 °F 30.04 in North 2.3 mph 8.1 mph 47 % 0.00 in
15:32 87.4 °F 64.1 °F 30.04 in North 1.3 mph 5.8 mph 46 % 0.00 in
15:37 87.4 °F 60.8 °F 30.05 in WNW 4.8 mph 9.2 mph 41 % 0.00 in
15:42 87.2 °F 59.9 °F 30.04 in WNW 4.8 mph 9.2 mph 40 % 0.00 in
15:48 87.1 °F 60.5 °F 30.04 in NW 2.2 mph 5.8 mph 41 % 0.00 in
15:53 86.7 °F 60.9 °F 30.04 in NW 5.4 mph 8.1 mph 42 % 0.00 in
15:58 86.3 °F 62.5 °F 30.04 in West 2.4 mph 5.8 mph 45 % 0.00 in
16:03 86.2 °F 61.7 °F 30.04 in WNW 3.8 mph 5.8 mph 44 % 0.00 in
16:08 86.1 °F 61.0 °F 30.04 in WNW 6.0 mph 11.5 mph 43 % 0.00 in
16:13 86.1 °F 64.1 °F 30.04 in WSW 2.4 mph 3.5 mph 48 % 0.00 in
16:18 86.1 °F 64.1 °F 30.04 in NNE 2.2 mph 4.6 mph 48 % 0.00 in
16:23 85.9 °F 63.9 °F 30.04 in West 1.6 mph 5.8 mph 48 % 0.00 in
16:28 85.9 °F 64.5 °F 30.04 in NE 0.6 mph 3.5 mph 49 % 0.00 in
16:33 86.0 °F 63.4 °F 30.04 in WNW 4.3 mph 5.8 mph 47 % 0.00 in
16:39 86.0 °F 62.8 °F 30.04 in NNW 1.8 mph 3.5 mph 46 % 0.00 in
16:44 85.8 °F 62.6 °F 30.04 in North 2.5 mph 3.5 mph 46 % 0.00 in
16:49 85.6 °F 64.2 °F 30.04 in West 2.2 mph 5.8 mph 49 % 0.00 in
16:54 85.5 °F 61.1 °F 30.04 in NE 4.0 mph 9.2 mph 44 % 0.00 in
16:59 85.4 °F 61.6 °F 30.04 in NNE 3.1 mph 5.8 mph 45 % 0.00 in
17:04 85.0 °F 61.9 °F 30.04 in NW 1.3 mph 5.8 mph 46 % 0.00 in
17:09 84.7 °F 62.8 °F 30.04 in NW 2.6 mph 6.0 mph 48 % 0.00 in
17:14 84.5 °F 62.7 °F 30.05 in WNW 1.2 mph 3.0 mph 48 % 0.00 in
17:19 84.0 °F 60.4 °F 30.05 in WNW 2.5 mph 3.5 mph 45 % 0.00 in
17:24 83.7 °F 60.7 °F 30.05 in NNE 2.3 mph 3.5 mph 46 % 0.00 in
17:29 83.2 °F 61.5 °F 30.04 in NNW 0.4 mph 4.6 mph 48 % 0.00 in
17:35 82.9 °F 61.8 °F 30.04 in West 1.9 mph 4.0 mph 49 % 0.00 in
17:40 82.5 °F 60.8 °F 30.05 in NW 2.8 mph 4.6 mph 48 % 0.00 in
17:45 82.4 °F 59.5 °F 30.04 in NNE 0.2 mph 3.5 mph 46 % 0.00 in
17:50 82.2 °F 61.1 °F 30.05 in NNE 1.6 mph 5.8 mph 49 % 0.00 in
17:55 81.8 °F 60.8 °F 30.05 in WNW 1.0 mph 4.6 mph 49 % 0.00 in
18:00 81.6 °F 60.0 °F 30.04 in NNE 2.4 mph 3.5 mph 48 % 0.00 in
18:05 81.4 °F 59.8 °F 30.04 in North 2.7 mph 4.6 mph 48 % 0.00 in
18:10 81.3 °F 59.7 °F 30.05 in WSW 2.2 mph 3.5 mph 48 % 0.00 in
18:15 80.9 °F 58.8 °F 30.04 in WNW 1.2 mph 2.3 mph 47 % 0.00 in
18:20 80.7 °F 59.8 °F 30.04 in NNE 1.7 mph 3.5 mph 49 % 0.00 in
18:25 80.5 °F 60.1 °F 30.04 in North 1.1 mph 4.6 mph 50 % 0.00 in
18:30 80.4 °F 60.6 °F 30.04 in WNW 0.3 mph 2.3 mph 51 % 0.00 in
18:36 80.3 °F 61.1 °F 30.04 in WNW 1.0 mph 5.0 mph 52 % 0.00 in
18:41 80.2 °F 60.4 °F 30.04 in NW 1.0 mph 5.0 mph 51 % 0.00 in
18:46 80.1 °F 59.8 °F 30.04 in NW 2.0 mph 6.0 mph 50 % 0.00 in
18:51 80.0 °F 59.6 °F 30.05 in NNW 1.0 mph 4.0 mph 50 % 0.00 in
18:56 79.8 °F 60.6 °F 30.05 in West 0.7 mph 2.3 mph 52 % 0.00 in
19:01 79.8 °F 60.6 °F 30.05 in NW 0.8 mph 4.6 mph 52 % 0.00 in
19:06 79.7 °F 60.5 °F 30.05 in North 2.1 mph 3.5 mph 52 % 0.00 in
19:11 79.4 °F 60.2 °F 30.05 in NNE 3.1 mph 4.6 mph 52 % 0.00 in
19:16 79.3 °F 60.7 °F 30.05 in NNE 0.3 mph 3.5 mph 53 % 0.00 in
19:21 79.2 °F 60.1 °F 30.05 in NNE 0.9 mph 2.3 mph 52 % 0.00 in
19:26 79.0 °F 60.9 °F 30.05 in NNE 1.9 mph 5.8 mph 54 % 0.00 in
19:31 78.9 °F 59.2 °F 30.05 in NNW 1.4 mph 3.5 mph 51 % 0.00 in
19:36 78.6 °F 60.6 °F 30.06 in North 3.2 mph 4.6 mph 54 % 0.00 in
19:41 78.4 °F 61.4 °F 30.06 in NNE 1.7 mph 4.0 mph 56 % 0.00 in
19:47 78.3 °F 61.3 °F 30.07 in Calm   3.5 mph 56 % 0.00 in
19:52 78.2 °F 61.2 °F 30.06 in Calm   1.2 mph 56 % 0.00 in
19:57 78.0 °F 61.0 °F 30.07 in NNE 0.5 mph 2.0 mph 56 % 0.00 in
20:02 77.7 °F 60.8 °F 30.07 in NNE 0.9 mph 2.3 mph 56 % 0.00 in
20:07 77.4 °F 60.5 °F 30.07 in North 0.3 mph 1.2 mph 56 % 0.00 in
20:12 77.2 °F 60.3 °F 30.08 in NW 0.7 mph 2.3 mph 56 % 0.00 in
20:17 77.0 °F 60.1 °F 30.08 in NW 0.3 mph 2.3 mph 56 % 0.00 in
20:22 76.8 °F 60.4 °F 30.08 in WNW 0.4 mph 1.2 mph 57 % 0.00 in
20:27 76.6 °F 59.7 °F 30.08 in Calm   1.2 mph 56 % 0.00 in
20:32 76.5 °F 60.1 °F 30.08 in Calm     57 % 0.00 in
20:38 76.3 °F 60.9 °F 30.08 in NW 0.4 mph 1.2 mph 59 % 0.00 in
20:43 76.1 °F 61.7 °F 30.08 in North 1.0 mph 3.5 mph 61 % 0.00 in
20:48 75.9 °F 61.5 °F 30.08 in North 0.8 mph 2.3 mph 61 % 0.00 in
20:53 75.7 °F 60.4 °F 30.09 in Calm   3.5 mph 59 % 0.00 in
20:58 75.6 °F 60.3 °F 30.09 in Calm   1.2 mph 59 % 0.00 in
21:03 75.5 °F 60.6 °F 30.09 in NNW 0.6 mph 2.0 mph 60 % 0.00 in
21:08 75.3 °F 60.5 °F 30.10 in NNE 0.9 mph 3.0 mph 60 % 0.00 in
21:13 75.2 °F 60.8 °F 30.10 in North 0.6 mph 2.3 mph 61 % 0.00 in
21:18 75.0 °F 60.6 °F 30.10 in Calm     61 % 0.00 in
21:23 74.8 °F 60.9 °F 30.11 in Calm     62 % 0.00 in
21:29 74.8 °F 61.4 °F 30.11 in NNW 1.6 mph 3.5 mph 63 % 0.00 in
21:34 74.6 °F 61.6 °F 30.11 in North 0.4 mph 3.5 mph 64 % 0.00 in
21:39 74.5 °F 61.5 °F 30.11 in Calm   2.3 mph 64 % 0.00 in
21:44 74.4 °F 61.4 °F 30.11 in Calm   1.2 mph 64 % 0.00 in
21:49 74.2 °F 61.2 °F 30.11 in Calm     64 % 0.00 in
21:54 74.0 °F 61.5 °F 30.11 in Calm     65 % 0.00 in
21:59 73.9 °F 62.2 °F 30.11 in Calm     67 % 0.00 in
22:02 73.8 °F 62.2 °F 30.12 in Calm     67 % 0.00 in
22:07 73.5 °F 61.9 °F 30.12 in Calm     67 % 0.00 in
22:12 73.2 °F 61.6 °F 30.12 in Calm     67 % 0.00 in
22:17 72.8 °F 61.6 °F 30.12 in Calm     68 % 0.00 in
22:22 72.4 °F 61.2 °F 30.12 in Calm     68 % 0.00 in
22:27 71.9 °F 60.8 °F 30.12 in Calm     68 % 0.00 in
22:32 71.6 °F 60.9 °F 30.12 in Calm     69 % 0.00 in
22:38 71.3 °F 61.0 °F 30.12 in Calm   1.2 mph 70 % 0.00 in
22:43 71.0 °F 61.1 °F 30.12 in Calm     71 % 0.00 in
22:48 70.7 °F 60.8 °F 30.12 in Calm     71 % 0.00 in
22:53 70.5 °F 61.0 °F 30.12 in Calm     72 % 0.00 in
22:58 70.3 °F 60.8 °F 30.12 in Calm   1.2 mph 72 % 0.00 in
23:03 70.2 °F 60.7 °F 30.12 in Calm     72 % 0.00 in
23:08 70.1 °F 61.0 °F 30.12 in Calm     73 % 0.00 in
23:13 69.9 °F 60.8 °F 30.13 in Calm   1.2 mph 73 % 0.00 in
23:18 69.8 °F 61.1 °F 30.13 in Calm     74 % 0.00 in
23:23 69.7 °F 61.4 °F 30.13 in Calm     75 % 0.00 in
23:28 69.7 °F 61.8 °F 30.13 in Calm     76 % 0.00 in
23:34 69.6 °F 62.1 °F 30.14 in Calm     77 % 0.00 in
23:39 69.6 °F 62.1 °F 30.13 in Calm     77 % 0.00 in
23:44 69.5 °F 62.3 °F 30.13 in Calm   1.0 mph 78 % 0.00 in
23:49 69.5 °F 62.3 °F 30.14 in Calm     78 % 0.00 in
23:54 69.4 °F 62.2 °F 30.14 in Calm     78 % 0.00 in
23:59 69.4 °F 62.2 °F 30.14 in Calm     78 % 0.00 in
Crab Meadow Weather
Compliments of Weather Underground - 3 mb

Script developed by  Jim McMurry - jmcmurry@mwt.net Adapted for the template by  Wim van der Kuil - Leuven-Template.eu

Astronomy: The Sun is around 4.5 billion years old.